sensor_id;sensor_type;location;lat;lon;timestamp;P1;durP1;ratioP1;P2;durP2;ratioP2
24517;SDS011;12678;51.336;12.406;2022-11-27T00:00:40;19.45;;;6.90;;
24517;SDS011;12678;51.336;12.406;2022-11-27T00:03:06;13.65;;;6.70;;
24517;SDS011;12678;51.336;12.406;2022-11-27T00:05:31;19.65;;;7.93;;
24517;SDS011;12678;51.336;12.406;2022-11-27T00:07:59;17.67;;;6.93;;
24517;SDS011;12678;51.336;12.406;2022-11-27T00:10:24;22.52;;;7.25;;
24517;SDS011;12678;51.336;12.406;2022-11-27T00:12:50;19.45;;;8.85;;
24517;SDS011;12678;51.336;12.406;2022-11-27T00:15:16;13.40;;;6.03;;
24517;SDS011;12678;51.336;12.406;2022-11-27T00:17:43;23.20;;;7.97;;
24517;SDS011;12678;51.336;12.406;2022-11-27T00:20:09;15.25;;;6.47;;
24517;SDS011;12678;51.336;12.406;2022-11-27T00:22:38;10.27;;;6.20;;
24517;SDS011;12678;51.336;12.406;2022-11-27T00:25:04;15.13;;;6.38;;
24517;SDS011;12678;51.336;12.406;2022-11-27T00:27:30;12.73;;;6.40;;
24517;SDS011;12678;51.336;12.406;2022-11-27T00:29:55;17.25;;;7.43;;
24517;SDS011;12678;51.336;12.406;2022-11-27T00:32:21;14.95;;;7.22;;
24517;SDS011;12678;51.336;12.406;2022-11-27T00:34:47;14.38;;;5.18;;
24517;SDS011;12678;51.336;12.406;2022-11-27T00:37:13;16.65;;;6.05;;
24517;SDS011;12678;51.336;12.406;2022-11-27T00:39:39;14.50;;;6.93;;
24517;SDS011;12678;51.336;12.406;2022-11-27T00:42:04;10.70;;;6.30;;
24517;SDS011;12678;51.336;12.406;2022-11-27T00:44:30;11.25;;;5.65;;
24517;SDS011;12678;51.336;12.406;2022-11-27T00:46:56;16.45;;;5.93;;
24517;SDS011;12678;51.336;12.406;2022-11-27T00:49:22;14.63;;;6.57;;
24517;SDS011;12678;51.336;12.406;2022-11-27T00:51:47;15.90;;;6.90;;
24517;SDS011;12678;51.336;12.406;2022-11-27T00:54:13;16.95;;;7.13;;
24517;SDS011;12678;51.336;12.406;2022-11-27T00:56:39;28.50;;;8.32;;
24517;SDS011;12678;51.336;12.406;2022-11-27T00:59:05;13.80;;;7.13;;
24517;SDS011;12678;51.336;12.406;2022-11-27T01:01:36;14.95;;;6.28;;
24517;SDS011;12678;51.336;12.406;2022-11-27T01:06:31;12.05;;;5.07;;
24517;SDS011;12678;51.336;12.406;2022-11-27T01:08:57;14.88;;;5.95;;
24517;SDS011;12678;51.336;12.406;2022-11-27T01:11:24;18.52;;;6.38;;
24517;SDS011;12678;51.336;12.406;2022-11-27T01:13:56;11.53;;;6.03;;
24517;SDS011;12678;51.336;12.406;2022-11-27T01:16:24;11.25;;;5.60;;
24517;SDS011;12678;51.336;12.406;2022-11-27T01:18:52;13.80;;;6.68;;
24517;SDS011;12678;51.336;12.406;2022-11-27T01:21:19;13.80;;;5.93;;
24517;SDS011;12678;51.336;12.406;2022-11-27T01:23:46;16.88;;;6.50;;
24517;SDS011;12678;51.336;12.406;2022-11-27T01:26:13;10.60;;;5.93;;
24517;SDS011;12678;51.336;12.406;2022-11-27T01:28:40;12.38;;;6.20;;
24517;SDS011;12678;51.336;12.406;2022-11-27T01:31:07;10.10;;;5.70;;
24517;SDS011;12678;51.336;12.406;2022-11-27T01:33:36;12.88;;;5.50;;
24517;SDS011;12678;51.336;12.406;2022-11-27T01:36:03;12.45;;;5.53;;
24517;SDS011;12678;51.336;12.406;2022-11-27T01:38:31;17.45;;;6.03;;
24517;SDS011;12678;51.336;12.406;2022-11-27T01:43:50;12.63;;;5.40;;
24517;SDS011;12678;51.336;12.406;2022-11-27T01:49:04;14.75;;;6.88;;
24517;SDS011;12678;51.336;12.406;2022-11-27T01:52:06;12.00;;;6.43;;
24517;SDS011;12678;51.336;12.406;2022-11-27T01:54:40;16.65;;;5.82;;
24517;SDS011;12678;51.336;12.406;2022-11-27T01:57:13;12.77;;;6.13;;
24517;SDS011;12678;51.336;12.406;2022-11-27T01:59:42;21.55;;;7.15;;
24517;SDS011;12678;51.336;12.406;2022-11-27T02:02:09;16.85;;;6.20;;
24517;SDS011;12678;51.336;12.406;2022-11-27T02:04:35;21.67;;;7.18;;
24517;SDS011;12678;51.336;12.406;2022-11-27T02:07:01;16.13;;;7.03;;
24517;SDS011;12678;51.336;12.406;2022-11-27T02:09:27;13.15;;;6.13;;
24517;SDS011;12678;51.336;12.406;2022-11-27T02:37:17;18.23;;;6.63;;
24517;SDS011;12678;51.336;12.406;2022-11-27T02:42:29;11.77;;;5.82;;
24517;SDS011;12678;51.336;12.406;2022-11-27T02:45:04;11.18;;;5.22;;
24517;SDS011;12678;51.336;12.406;2022-11-27T02:47:36;12.07;;;6.15;;
24517;SDS011;12678;51.336;12.406;2022-11-27T02:50:04;13.05;;;6.05;;
24517;SDS011;12678;51.336;12.406;2022-11-27T02:52:33;18.23;;;6.80;;
24517;SDS011;12678;51.336;12.406;2022-11-27T02:55:03;13.55;;;6.22;;
24517;SDS011;12678;51.336;12.406;2022-11-27T02:57:32;13.95;;;6.07;;
24517;SDS011;12678;51.336;12.406;2022-11-27T02:59:59;9.85;;;5.95;;
24517;SDS011;12678;51.336;12.406;2022-11-27T03:02:28;12.57;;;6.07;;
24517;SDS011;12678;51.336;12.406;2022-11-27T03:04:59;12.73;;;6.83;;
24517;SDS011;12678;51.336;12.406;2022-11-27T03:07:36;11.50;;;5.80;;
24517;SDS011;12678;51.336;12.406;2022-11-27T03:10:17;13.52;;;5.80;;
24517;SDS011;12678;51.336;12.406;2022-11-27T03:12:46;10.20;;;5.82;;
24517;SDS011;12678;51.336;12.406;2022-11-27T03:15:13;10.90;;;5.97;;
24517;SDS011;12678;51.336;12.406;2022-11-27T03:17:50;13.73;;;6.22;;
24517;SDS011;12678;51.336;12.406;2022-11-27T03:20:20;17.65;;;7.45;;
24517;SDS011;12678;51.336;12.406;2022-11-27T03:22:49;13.07;;;6.68;;
24517;SDS011;12678;51.336;12.406;2022-11-27T03:25:16;13.60;;;6.72;;
24517;SDS011;12678;51.336;12.406;2022-11-27T03:27:46;14.80;;;6.65;;
24517;SDS011;12678;51.336;12.406;2022-11-27T03:30:20;19.50;;;7.18;;
24517;SDS011;12678;51.336;12.406;2022-11-27T03:32:46;12.25;;;6.00;;
24517;SDS011;12678;51.336;12.406;2022-11-27T03:35:12;9.90;;;6.03;;
24517;SDS011;12678;51.336;12.406;2022-11-27T03:37:40;16.42;;;6.63;;
24517;SDS011;12678;51.336;12.406;2022-11-27T03:40:06;15.05;;;5.53;;
24517;SDS011;12678;51.336;12.406;2022-11-27T03:42:38;12.85;;;5.50;;
24517;SDS011;12678;51.336;12.406;2022-11-27T03:45:31;11.10;;;5.55;;
24517;SDS011;12678;51.336;12.406;2022-11-27T03:48:21;13.75;;;7.40;;
24517;SDS011;12678;51.336;12.406;2022-11-27T03:56:23;13.55;;;6.45;;
24517;SDS011;12678;51.336;12.406;2022-11-27T04:01:31;13.00;;;6.13;;
24517;SDS011;12678;51.336;12.406;2022-11-27T04:03:58;10.50;;;5.80;;
24517;SDS011;12678;51.336;12.406;2022-11-27T04:06:23;16.55;;;6.20;;
24517;SDS011;12678;51.336;12.406;2022-11-27T04:08:49;16.23;;;6.53;;
24517;SDS011;12678;51.336;12.406;2022-11-27T04:11:14;11.35;;;5.43;;
24517;SDS011;12678;51.336;12.406;2022-11-27T04:13:40;15.13;;;6.55;;
24517;SDS011;12678;51.336;12.406;2022-11-27T04:16:06;13.82;;;6.43;;
24517;SDS011;12678;51.336;12.406;2022-11-27T04:18:33;11.55;;;5.97;;
24517;SDS011;12678;51.336;12.406;2022-11-27T04:20:59;13.60;;;6.35;;
24517;SDS011;12678;51.336;12.406;2022-11-27T04:23:24;10.45;;;5.60;;
24517;SDS011;12678;51.336;12.406;2022-11-27T04:25:50;10.85;;;6.50;;
24517;SDS011;12678;51.336;12.406;2022-11-27T04:28:16;16.17;;;6.32;;
24517;SDS011;12678;51.336;12.406;2022-11-27T04:30:42;14.73;;;6.38;;
24517;SDS011;12678;51.336;12.406;2022-11-27T04:33:08;15.13;;;6.15;;
24517;SDS011;12678;51.336;12.406;2022-11-27T04:35:33;16.25;;;7.03;;
24517;SDS011;12678;51.336;12.406;2022-11-27T04:37:59;16.83;;;6.50;;
24517;SDS011;12678;51.336;12.406;2022-11-27T04:40:25;12.13;;;6.18;;
24517;SDS011;12678;51.336;12.406;2022-11-27T04:42:51;16.15;;;6.40;;
24517;SDS011;12678;51.336;12.406;2022-11-27T04:45:16;14.73;;;6.07;;
24517;SDS011;12678;51.336;12.406;2022-11-27T04:47:42;13.75;;;6.38;;
24517;SDS011;12678;51.336;12.406;2022-11-27T04:50:07;11.65;;;5.75;;
24517;SDS011;12678;51.336;12.406;2022-11-27T04:52:34;11.57;;;5.70;;
24517;SDS011;12678;51.336;12.406;2022-11-27T04:55:00;14.65;;;7.82;;
24517;SDS011;12678;51.336;12.406;2022-11-27T04:57:25;11.90;;;6.30;;
24517;SDS011;12678;51.336;12.406;2022-11-27T04:59:51;15.00;;;6.60;;
24517;SDS011;12678;51.336;12.406;2022-11-27T05:02:17;20.80;;;6.38;;
24517;SDS011;12678;51.336;12.406;2022-11-27T05:04:42;12.32;;;5.80;;
24517;SDS011;12678;51.336;12.406;2022-11-27T05:07:08;14.57;;;6.68;;
24517;SDS011;12678;51.336;12.406;2022-11-27T05:09:33;11.68;;;6.05;;
24517;SDS011;12678;51.336;12.406;2022-11-27T05:11:59;18.98;;;7.35;;
24517;SDS011;12678;51.336;12.406;2022-11-27T05:14:25;12.60;;;6.25;;
24517;SDS011;12678;51.336;12.406;2022-11-27T05:16:53;11.65;;;6.35;;
24517;SDS011;12678;51.336;12.406;2022-11-27T05:19:20;13.82;;;6.78;;
24517;SDS011;12678;51.336;12.406;2022-11-27T05:21:48;15.98;;;6.60;;
24517;SDS011;12678;51.336;12.406;2022-11-27T05:24:15;14.50;;;6.85;;
24517;SDS011;12678;51.336;12.406;2022-11-27T05:26:42;15.18;;;7.53;;
24517;SDS011;12678;51.336;12.406;2022-11-27T05:29:08;26.45;;;7.00;;
24517;SDS011;12678;51.336;12.406;2022-11-27T05:31:34;15.95;;;6.22;;
24517;SDS011;12678;51.336;12.406;2022-11-27T05:34:00;13.85;;;7.50;;
24517;SDS011;12678;51.336;12.406;2022-11-27T05:36:27;13.25;;;6.00;;
24517;SDS011;12678;51.336;12.406;2022-11-27T05:38:53;11.45;;;6.65;;
24517;SDS011;12678;51.336;12.406;2022-11-27T05:41:19;18.35;;;7.45;;
24517;SDS011;12678;51.336;12.406;2022-11-27T05:43:44;19.98;;;7.18;;
24517;SDS011;12678;51.336;12.406;2022-11-27T05:46:11;12.38;;;6.07;;
24517;SDS011;12678;51.336;12.406;2022-11-27T05:48:39;11.93;;;6.07;;
24517;SDS011;12678;51.336;12.406;2022-11-27T05:51:05;14.23;;;6.55;;
24517;SDS011;12678;51.336;12.406;2022-11-27T05:53:31;12.75;;;6.28;;
24517;SDS011;12678;51.336;12.406;2022-11-27T05:56:00;12.98;;;6.97;;
24517;SDS011;12678;51.336;12.406;2022-11-27T05:58:30;14.07;;;6.68;;
24517;SDS011;12678;51.336;12.406;2022-11-27T06:00:56;12.32;;;5.78;;
24517;SDS011;12678;51.336;12.406;2022-11-27T06:03:22;16.15;;;6.07;;
24517;SDS011;12678;51.336;12.406;2022-11-27T06:05:47;13.82;;;7.00;;
24517;SDS011;12678;51.336;12.406;2022-11-27T06:08:13;12.77;;;6.68;;
24517;SDS011;12678;51.336;12.406;2022-11-27T06:10:39;13.50;;;6.55;;
24517;SDS011;12678;51.336;12.406;2022-11-27T06:13:04;9.93;;;5.68;;
24517;SDS011;12678;51.336;12.406;2022-11-27T06:15:30;13.73;;;6.35;;
24517;SDS011;12678;51.336;12.406;2022-11-27T06:17:56;15.18;;;6.45;;
24517;SDS011;12678;51.336;12.406;2022-11-27T06:20:22;12.60;;;6.10;;
24517;SDS011;12678;51.336;12.406;2022-11-27T06:22:48;16.90;;;6.15;;
24517;SDS011;12678;51.336;12.406;2022-11-27T06:25:14;15.23;;;6.20;;
24517;SDS011;12678;51.336;12.406;2022-11-27T06:27:40;21.27;;;6.13;;
24517;SDS011;12678;51.336;12.406;2022-11-27T06:30:06;13.48;;;6.13;;
24517;SDS011;12678;51.336;12.406;2022-11-27T06:32:32;10.50;;;5.43;;
24517;SDS011;12678;51.336;12.406;2022-11-27T06:34:58;17.73;;;5.55;;
24517;SDS011;12678;51.336;12.406;2022-11-27T06:37:23;19.27;;;6.38;;
24517;SDS011;12678;51.336;12.406;2022-11-27T06:39:49;15.60;;;7.45;;
24517;SDS011;12678;51.336;12.406;2022-11-27T06:42:15;9.70;;;5.03;;
24517;SDS011;12678;51.336;12.406;2022-11-27T06:44:41;12.85;;;6.55;;
24517;SDS011;12678;51.336;12.406;2022-11-27T06:47:07;14.00;;;6.28;;
24517;SDS011;12678;51.336;12.406;2022-11-27T06:49:33;14.07;;;5.95;;
24517;SDS011;12678;51.336;12.406;2022-11-27T06:51:58;8.90;;;5.60;;
24517;SDS011;12678;51.336;12.406;2022-11-27T06:54:24;12.38;;;5.90;;
24517;SDS011;12678;51.336;12.406;2022-11-27T06:56:50;11.90;;;5.97;;
24517;SDS011;12678;51.336;12.406;2022-11-27T06:59:16;11.20;;;6.47;;
24517;SDS011;12678;51.336;12.406;2022-11-27T07:01:43;10.57;;;5.25;;
24517;SDS011;12678;51.336;12.406;2022-11-27T07:04:10;13.20;;;5.28;;
24517;SDS011;12678;51.336;12.406;2022-11-27T07:06:37;17.15;;;6.53;;
24517;SDS011;12678;51.336;12.406;2022-11-27T07:09:05;14.85;;;5.45;;
24517;SDS011;12678;51.336;12.406;2022-11-27T07:11:31;10.45;;;6.10;;
24517;SDS011;12678;51.336;12.406;2022-11-27T07:13:58;15.35;;;5.47;;
24517;SDS011;12678;51.336;12.406;2022-11-27T07:16:26;9.23;;;4.70;;
24517;SDS011;12678;51.336;12.406;2022-11-27T07:18:54;14.52;;;6.13;;
24517;SDS011;12678;51.336;12.406;2022-11-27T07:21:22;13.27;;;6.35;;
24517;SDS011;12678;51.336;12.406;2022-11-27T07:23:48;11.15;;;4.70;;
24517;SDS011;12678;51.336;12.406;2022-11-27T07:26:15;15.10;;;5.30;;
24517;SDS011;12678;51.336;12.406;2022-11-27T07:28:42;12.48;;;5.10;;
24517;SDS011;12678;51.336;12.406;2022-11-27T07:31:09;8.93;;;4.90;;
24517;SDS011;12678;51.336;12.406;2022-11-27T07:33:36;10.30;;;4.70;;
24517;SDS011;12678;51.336;12.406;2022-11-27T07:36:07;11.30;;;6.15;;
24517;SDS011;12678;51.336;12.406;2022-11-27T07:38:39;10.82;;;5.55;;
24517;SDS011;12678;51.336;12.406;2022-11-27T07:41:04;9.60;;;5.43;;
24517;SDS011;12678;51.336;12.406;2022-11-27T07:43:31;10.38;;;5.03;;
24517;SDS011;12678;51.336;12.406;2022-11-27T07:45:58;10.13;;;4.93;;
24517;SDS011;12678;51.336;12.406;2022-11-27T07:48:31;13.23;;;5.65;;
24517;SDS011;12678;51.336;12.406;2022-11-27T07:50:57;15.85;;;5.38;;
24517;SDS011;12678;51.336;12.406;2022-11-27T07:53:23;15.85;;;5.20;;
24517;SDS011;12678;51.336;12.406;2022-11-27T07:55:49;12.38;;;5.75;;
24517;SDS011;12678;51.336;12.406;2022-11-27T07:58:14;13.15;;;5.13;;
24517;SDS011;12678;51.336;12.406;2022-11-27T08:00:40;12.35;;;5.18;;
24517;SDS011;12678;51.336;12.406;2022-11-27T08:03:06;12.57;;;5.47;;
24517;SDS011;12678;51.336;12.406;2022-11-27T08:05:33;6.95;;;4.57;;
24517;SDS011;12678;51.336;12.406;2022-11-27T08:08:00;10.25;;;4.95;;
24517;SDS011;12678;51.336;12.406;2022-11-27T08:10:28;11.40;;;4.78;;
24517;SDS011;12678;51.336;12.406;2022-11-27T08:12:54;13.68;;;5.28;;
24517;SDS011;12678;51.336;12.406;2022-11-27T08:15:21;7.25;;;4.35;;
24517;SDS011;12678;51.336;12.406;2022-11-27T08:17:46;11.73;;;4.97;;
24517;SDS011;12678;51.336;12.406;2022-11-27T08:20:12;9.45;;;4.55;;
24517;SDS011;12678;51.336;12.406;2022-11-27T08:22:38;11.73;;;5.00;;
24517;SDS011;12678;51.336;12.406;2022-11-27T08:25:03;6.25;;;4.10;;
24517;SDS011;12678;51.336;12.406;2022-11-27T08:27:30;8.80;;;4.15;;
24517;SDS011;12678;51.336;12.406;2022-11-27T08:29:57;9.73;;;4.20;;
24517;SDS011;12678;51.336;12.406;2022-11-27T08:32:24;8.57;;;5.00;;
24517;SDS011;12678;51.336;12.406;2022-11-27T08:34:49;9.75;;;4.93;;
24517;SDS011;12678;51.336;12.406;2022-11-27T08:37:15;11.00;;;5.45;;
24517;SDS011;12678;51.336;12.406;2022-11-27T08:39:41;7.05;;;4.35;;
24517;SDS011;12678;51.336;12.406;2022-11-27T08:42:06;7.15;;;4.82;;
24517;SDS011;12678;51.336;12.406;2022-11-27T08:44:33;10.63;;;5.20;;
24517;SDS011;12678;51.336;12.406;2022-11-27T08:46:59;11.60;;;4.65;;
24517;SDS011;12678;51.336;12.406;2022-11-27T08:49:25;15.25;;;5.40;;
24517;SDS011;12678;51.336;12.406;2022-11-27T08:51:50;13.55;;;5.65;;
24517;SDS011;12678;51.336;12.406;2022-11-27T08:54:16;8.85;;;5.03;;
24517;SDS011;12678;51.336;12.406;2022-11-27T08:56:41;10.73;;;5.13;;
24517;SDS011;12678;51.336;12.406;2022-11-27T08:59:07;7.15;;;4.50;;
24517;SDS011;12678;51.336;12.406;2022-11-27T09:01:33;8.82;;;4.88;;
24517;SDS011;12678;51.336;12.406;2022-11-27T09:03:59;15.20;;;5.40;;
24517;SDS011;12678;51.336;12.406;2022-11-27T09:06:26;10.65;;;5.80;;
24517;SDS011;12678;51.336;12.406;2022-11-27T09:08:59;11.93;;;6.38;;
24517;SDS011;12678;51.336;12.406;2022-11-27T09:11:28;10.10;;;4.80;;
24517;SDS011;12678;51.336;12.406;2022-11-27T09:13:55;10.13;;;4.65;;
24517;SDS011;12678;51.336;12.406;2022-11-27T09:16:20;10.25;;;5.05;;
24517;SDS011;12678;51.336;12.406;2022-11-27T09:18:47;8.18;;;4.70;;
24517;SDS011;12678;51.336;12.406;2022-11-27T09:21:15;7.80;;;5.03;;
24517;SDS011;12678;51.336;12.406;2022-11-27T09:23:43;9.45;;;5.30;;
24517;SDS011;12678;51.336;12.406;2022-11-27T09:26:10;10.75;;;5.22;;
24517;SDS011;12678;51.336;12.406;2022-11-27T09:28:37;8.45;;;4.18;;
24517;SDS011;12678;51.336;12.406;2022-11-27T09:31:04;11.07;;;5.00;;
24517;SDS011;12678;51.336;12.406;2022-11-27T09:33:33;8.77;;;4.88;;
24517;SDS011;12678;51.336;12.406;2022-11-27T09:36:10;8.02;;;4.55;;
24517;SDS011;12678;51.336;12.406;2022-11-27T09:38:37;10.27;;;4.35;;
24517;SDS011;12678;51.336;12.406;2022-11-27T09:41:46;8.10;;;4.70;;
24517;SDS011;12678;51.336;12.406;2022-11-27T09:47:09;10.07;;;5.05;;
24517;SDS011;12678;51.336;12.406;2022-11-27T09:50:03;9.82;;;4.72;;
24517;SDS011;12678;51.336;12.406;2022-11-27T09:52:38;14.38;;;5.22;;
24517;SDS011;12678;51.336;12.406;2022-11-27T09:58:34;9.77;;;5.65;;
24517;SDS011;12678;51.336;12.406;2022-11-27T10:01:08;10.18;;;4.35;;
24517;SDS011;12678;51.336;12.406;2022-11-27T10:03:34;8.30;;;4.57;;
24517;SDS011;12678;51.336;12.406;2022-11-27T10:20:34;13.30;;;5.15;;
24517;SDS011;12678;51.336;12.406;2022-11-27T10:23:19;8.60;;;4.60;;
24517;SDS011;12678;51.336;12.406;2022-11-27T10:26:00;10.23;;;3.97;;
24517;SDS011;12678;51.336;12.406;2022-11-27T10:31:25;8.82;;;4.15;;
24517;SDS011;12678;51.336;12.406;2022-11-27T10:33:58;9.55;;;4.38;;
24517;SDS011;12678;51.336;12.406;2022-11-27T10:36:33;6.95;;;3.90;;
24517;SDS011;12678;51.336;12.406;2022-11-27T10:39:05;8.80;;;3.88;;
24517;SDS011;12678;51.336;12.406;2022-11-27T10:41:41;7.82;;;3.95;;
24517;SDS011;12678;51.336;12.406;2022-11-27T10:44:21;7.60;;;3.88;;
24517;SDS011;12678;51.336;12.406;2022-11-27T10:47:02;10.02;;;4.45;;
24517;SDS011;12678;51.336;12.406;2022-11-27T10:49:31;10.23;;;4.05;;
24517;SDS011;12678;51.336;12.406;2022-11-27T10:51:59;14.27;;;4.18;;
24517;SDS011;12678;51.336;12.406;2022-11-27T10:54:26;7.97;;;4.55;;
24517;SDS011;12678;51.336;12.406;2022-11-27T11:02:39;8.32;;;4.63;;
24517;SDS011;12678;51.336;12.406;2022-11-27T11:05:21;8.02;;;4.35;;
24517;SDS011;12678;51.336;12.406;2022-11-27T11:10:27;11.07;;;5.20;;
24517;SDS011;12678;51.336;12.406;2022-11-27T11:13:05;8.43;;;3.85;;
24517;SDS011;12678;51.336;12.406;2022-11-27T11:18:18;9.45;;;4.07;;
24517;SDS011;12678;51.336;12.406;2022-11-27T11:20:47;9.65;;;4.25;;
24517;SDS011;12678;51.336;12.406;2022-11-27T11:26:10;9.10;;;4.00;;
24517;SDS011;12678;51.336;12.406;2022-11-27T11:28:51;5.82;;;3.75;;
24517;SDS011;12678;51.336;12.406;2022-11-27T11:31:22;6.15;;;3.58;;
24517;SDS011;12678;51.336;12.406;2022-11-27T11:34:02;12.40;;;4.15;;
24517;SDS011;12678;51.336;12.406;2022-11-27T11:37:44;8.73;;;3.67;;
24517;SDS011;12678;51.336;12.406;2022-11-27T11:39:46;6.43;;;3.42;;
24517;SDS011;12678;51.336;12.406;2022-11-27T11:42:29;9.07;;;3.60;;
24517;SDS011;12678;51.336;12.406;2022-11-27T11:47:44;6.05;;;3.33;;
24517;SDS011;12678;51.336;12.406;2022-11-27T11:50:16;6.47;;;3.30;;
24517;SDS011;12678;51.336;12.406;2022-11-27T11:53:01;8.30;;;3.60;;
24517;SDS011;12678;51.336;12.406;2022-11-27T11:55:47;7.50;;;3.92;;
24517;SDS011;12678;51.336;12.406;2022-11-27T12:03:57;7.57;;;4.00;;
24517;SDS011;12678;51.336;12.406;2022-11-27T12:09:38;9.43;;;4.35;;
24517;SDS011;12678;51.336;12.406;2022-11-27T12:14:59;9.75;;;4.97;;
24517;SDS011;12678;51.336;12.406;2022-11-27T12:20:14;8.25;;;4.07;;
24517;SDS011;12678;51.336;12.406;2022-11-27T12:33:43;11.88;;;4.30;;
24517;SDS011;12678;51.336;12.406;2022-11-27T12:44:36;8.65;;;5.10;;
24517;SDS011;12678;51.336;12.406;2022-11-27T12:47:28;10.35;;;4.78;;
24517;SDS011;12678;51.336;12.406;2022-11-27T12:53:13;7.18;;;4.03;;
24517;SDS011;12678;51.336;12.406;2022-11-27T12:56:14;9.05;;;5.07;;
24517;SDS011;12678;51.336;12.406;2022-11-27T12:58:52;10.38;;;4.07;;
24517;SDS011;12678;51.336;12.406;2022-11-27T13:01:35;8.55;;;4.45;;
24517;SDS011;12678;51.336;12.406;2022-11-27T13:06:48;9.85;;;5.03;;
24517;SDS011;12678;51.336;12.406;2022-11-27T13:09:24;9.93;;;4.20;;
24517;SDS011;12678;51.336;12.406;2022-11-27T13:12:12;10.60;;;4.68;;
24517;SDS011;12678;51.336;12.406;2022-11-27T13:14:44;9.32;;;4.70;;
24517;SDS011;12678;51.336;12.406;2022-11-27T13:17:19;10.25;;;5.03;;
24517;SDS011;12678;51.336;12.406;2022-11-27T13:19:48;9.88;;;5.07;;
24517;SDS011;12678;51.336;12.406;2022-11-27T13:22:19;10.10;;;4.75;;
24517;SDS011;12678;51.336;12.406;2022-11-27T13:24:52;12.43;;;4.25;;
24517;SDS011;12678;51.336;12.406;2022-11-27T13:27:20;11.10;;;5.18;;
24517;SDS011;12678;51.336;12.406;2022-11-27T13:29:52;7.72;;;3.85;;
24517;SDS011;12678;51.336;12.406;2022-11-27T13:32:22;7.85;;;4.25;;
24517;SDS011;12678;51.336;12.406;2022-11-27T13:34:51;7.97;;;4.50;;
24517;SDS011;12678;51.336;12.406;2022-11-27T13:37:30;12.85;;;4.47;;
24517;SDS011;12678;51.336;12.406;2022-11-27T13:40:00;12.95;;;4.65;;
24517;SDS011;12678;51.336;12.406;2022-11-27T13:42:52;9.32;;;4.45;;
24517;SDS011;12678;51.336;12.406;2022-11-27T13:45:24;7.47;;;4.80;;
24517;SDS011;12678;51.336;12.406;2022-11-27T13:47:55;9.38;;;4.47;;
24517;SDS011;12678;51.336;12.406;2022-11-27T13:50:22;11.85;;;4.10;;
24517;SDS011;12678;51.336;12.406;2022-11-27T13:52:53;9.50;;;4.57;;
24517;SDS011;12678;51.336;12.406;2022-11-27T13:55:28;7.90;;;4.72;;
24517;SDS011;12678;51.336;12.406;2022-11-27T13:57:55;11.77;;;4.50;;
24517;SDS011;12678;51.336;12.406;2022-11-27T14:00:31;14.07;;;4.82;;
24517;SDS011;12678;51.336;12.406;2022-11-27T14:03:02;10.75;;;3.75;;
24517;SDS011;12678;51.336;12.406;2022-11-27T14:05:41;12.07;;;5.13;;
24517;SDS011;12678;51.336;12.406;2022-11-27T14:08:23;10.02;;;4.40;;
24517;SDS011;12678;51.336;12.406;2022-11-27T14:11:04;8.77;;;4.30;;
24517;SDS011;12678;51.336;12.406;2022-11-27T14:13:49;7.72;;;3.80;;
24517;SDS011;12678;51.336;12.406;2022-11-27T14:18:59;8.25;;;3.90;;
24517;SDS011;12678;51.336;12.406;2022-11-27T14:21:34;8.48;;;4.55;;
24517;SDS011;12678;51.336;12.406;2022-11-27T14:26:47;8.02;;;4.13;;
24517;SDS011;12678;51.336;12.406;2022-11-27T14:29:13;10.35;;;4.40;;
24517;SDS011;12678;51.336;12.406;2022-11-27T14:31:39;12.60;;;4.70;;
24517;SDS011;12678;51.336;12.406;2022-11-27T14:34:26;9.95;;;4.63;;
24517;SDS011;12678;51.336;12.406;2022-11-27T14:36:53;6.70;;;3.85;;
24517;SDS011;12678;51.336;12.406;2022-11-27T14:39:23;6.15;;;3.60;;
24517;SDS011;12678;51.336;12.406;2022-11-27T14:42:00;7.63;;;3.92;;
24517;SDS011;12678;51.336;12.406;2022-11-27T14:44:32;8.77;;;3.80;;
24517;SDS011;12678;51.336;12.406;2022-11-27T14:46:59;9.13;;;4.22;;
24517;SDS011;12678;51.336;12.406;2022-11-27T14:49:28;13.65;;;4.25;;
24517;SDS011;12678;51.336;12.406;2022-11-27T14:52:03;9.85;;;4.50;;
24517;SDS011;12678;51.336;12.406;2022-11-27T14:54:35;14.40;;;5.32;;
24517;SDS011;12678;51.336;12.406;2022-11-27T14:57:03;11.77;;;4.38;;
24517;SDS011;12678;51.336;12.406;2022-11-27T14:59:29;12.52;;;5.03;;
24517;SDS011;12678;51.336;12.406;2022-11-27T15:06:56;11.75;;;4.47;;
24517;SDS011;12678;51.336;12.406;2022-11-27T15:09:27;9.55;;;4.43;;
24517;SDS011;12678;51.336;12.406;2022-11-27T15:11:59;11.50;;;4.85;;
24517;SDS011;12678;51.336;12.406;2022-11-27T15:14:32;10.18;;;4.85;;
24517;SDS011;12678;51.336;12.406;2022-11-27T15:16:59;16.63;;;5.22;;
24517;SDS011;12678;51.336;12.406;2022-11-27T15:21:53;17.15;;;6.25;;
24517;SDS011;12678;51.336;12.406;2022-11-27T15:24:26;13.95;;;5.15;;
24517;SDS011;12678;51.336;12.406;2022-11-27T15:29:39;15.85;;;6.22;;
24517;SDS011;12678;51.336;12.406;2022-11-27T15:32:16;10.98;;;5.05;;
24517;SDS011;12678;51.336;12.406;2022-11-27T15:34:52;14.40;;;6.30;;
24517;SDS011;12678;51.336;12.406;2022-11-27T15:37:30;22.27;;;7.53;;
24517;SDS011;12678;51.336;12.406;2022-11-27T15:39:58;9.88;;;5.32;;
24517;SDS011;12678;51.336;12.406;2022-11-27T15:42:25;13.20;;;5.15;;
24517;SDS011;12678;51.336;12.406;2022-11-27T15:44:53;10.60;;;5.07;;
24517;SDS011;12678;51.336;12.406;2022-11-27T15:47:21;12.05;;;4.93;;
24517;SDS011;12678;51.336;12.406;2022-11-27T15:49:47;11.43;;;4.85;;
24517;SDS011;12678;51.336;12.406;2022-11-27T15:52:16;7.68;;;4.45;;
24517;SDS011;12678;51.336;12.406;2022-11-27T15:54:42;12.40;;;5.93;;
24517;SDS011;12678;51.336;12.406;2022-11-27T15:57:08;9.18;;;4.63;;
24517;SDS011;12678;51.336;12.406;2022-11-27T15:59:34;10.25;;;4.60;;
24517;SDS011;12678;51.336;12.406;2022-11-27T16:01:59;10.40;;;6.30;;
24517;SDS011;12678;51.336;12.406;2022-11-27T16:04:25;14.73;;;4.80;;
24517;SDS011;12678;51.336;12.406;2022-11-27T16:06:51;9.93;;;5.65;;
24517;SDS011;12678;51.336;12.406;2022-11-27T16:09:16;10.25;;;5.40;;
24517;SDS011;12678;51.336;12.406;2022-11-27T16:11:42;9.88;;;5.22;;
24517;SDS011;12678;51.336;12.406;2022-11-27T16:14:08;10.88;;;5.10;;
24517;SDS011;12678;51.336;12.406;2022-11-27T16:16:34;10.85;;;5.00;;
24517;SDS011;12678;51.336;12.406;2022-11-27T16:19:01;9.98;;;4.80;;
24517;SDS011;12678;51.336;12.406;2022-11-27T16:21:30;11.38;;;5.15;;
24517;SDS011;12678;51.336;12.406;2022-11-27T16:24:01;13.27;;;5.57;;
24517;SDS011;12678;51.336;12.406;2022-11-27T16:26:29;11.18;;;4.80;;
24517;SDS011;12678;51.336;12.406;2022-11-27T16:28:55;10.73;;;5.65;;
24517;SDS011;12678;51.336;12.406;2022-11-27T16:31:21;13.80;;;5.30;;
24517;SDS011;12678;51.336;12.406;2022-11-27T16:33:47;13.70;;;5.10;;
24517;SDS011;12678;51.336;12.406;2022-11-27T16:36:14;10.65;;;5.45;;
24517;SDS011;12678;51.336;12.406;2022-11-27T16:38:41;11.43;;;5.60;;
24517;SDS011;12678;51.336;12.406;2022-11-27T16:41:08;9.98;;;5.68;;
24517;SDS011;12678;51.336;12.406;2022-11-27T16:43:36;14.55;;;6.57;;
24517;SDS011;12678;51.336;12.406;2022-11-27T16:46:09;11.25;;;5.70;;
24517;SDS011;12678;51.336;12.406;2022-11-27T16:48:40;14.63;;;5.90;;
24517;SDS011;12678;51.336;12.406;2022-11-27T16:53:38;14.32;;;6.03;;
24517;SDS011;12678;51.336;12.406;2022-11-27T16:56:06;18.27;;;6.35;;
24517;SDS011;12678;51.336;12.406;2022-11-27T16:58:34;11.23;;;6.13;;
24517;SDS011;12678;51.336;12.406;2022-11-27T17:01:20;13.55;;;6.53;;